Time;durP1;ratioP1;P1;durP2;ratioP2;P2;SDS_P1;SDS_P2;PMS_P1;PMS_P2;Temp;Humidity;BMP_temperature;BMP_pressure;BME280_temperature;BME280_humidity;BME280_pressure;Samples;Min_cycle;Max_cycle;Signal;HPM_P1;HPM_P2
2021/11/08 00:01:03;;;;;;;10.90;5.20;;;;;;;5.60;77.70;98462.86;112441;1193;60758;-23
2021/11/08 00:03:33;;;;;;;14.10;7.60;;;;;;;6.12;76.82;98461.46;112094;1193;73925;-23
2021/11/08 00:06:04;;;;;;;18.80;8.60;;;;;;;6.63;74.50;98461.16;112436;1193;74571;-23
2021/11/08 00:08:33;;;;;;;12.30;7.70;;;;;;;6.65;74.04;98463.65;112492;1177;74063;-23
2021/11/08 00:11:01;;;;;;;14.30;8.20;;;;;;;6.43;74.33;98467.48;112580;1193;60822;-22
2021/11/08 00:13:31;;;;;;;16.50;8.60;;;;;;;6.17;74.99;98465.60;112255;1192;60803;-22
2021/11/08 00:16:31;;;;;;;10.90;7.40;;;;;;;5.88;75.83;98466.96;112484;1193;77069;-22
2021/11/08 00:22:02;;;;;;;9.90;6.10;;;;;;;6.24;75.27;98470.63;112478;1193;73283;-22
2021/11/08 00:24:51;;;;;;;11.70;6.60;;;;;;;6.54;73.65;98467.21;112406;1193;61935;-22
2021/11/08 00:27:26;;;;;;;9.90;5.80;;;;;;;6.43;73.82;98465.13;112482;1192;60840;-22
2021/11/08 00:30:11;;;;;;;10.50;6.40;;;;;;;6.16;74.63;98470.86;112478;1192;75211;-22
2021/11/08 00:32:42;;;;;;;8.60;5.30;;;;;;;5.90;75.46;98473.50;112228;1192;75514;-22
2021/11/08 00:35:12;;;;;;;11.10;6.20;;;;;;;5.68;76.18;98469.02;112557;1192;73996;-23
2021/11/08 00:37:41;;;;;;;6.50;4.60;;;;;;;5.55;76.78;98474.95;112492;1181;62567;-22
2021/11/08 00:40:10;;;;;;;8.30;5.20;;;;;;;6.04;75.80;98465.30;112475;1183;61517;-22
2021/11/08 00:42:38;;;;;;;11.60;5.70;;;;;;;6.60;73.73;98463.67;112131;1192;75369;-22
2021/11/08 00:45:07;;;;;;;9.50;6.20;;;;;;;6.62;72.91;98468.54;112515;1193;75096;-22
2021/11/08 00:47:36;;;;;;;9.70;5.80;;;;;;;6.41;73.61;98477.85;112488;1193;73503;-22
2021/11/08 00:50:06;;;;;;;11.10;6.30;;;;;;;6.10;74.33;98476.42;112516;1192;61519;-22
2021/11/08 00:52:36;;;;;;;13.70;6.60;;;;;;;5.84;75.11;98481.18;112099;1192;60986;-22
2021/11/08 00:55:05;;;;;;;13.90;6.80;;;;;;;5.62;75.86;98479.98;112543;1193;74637;-22
2021/11/08 00:57:37;;;;;;;6.70;4.70;;;;;;;5.49;76.77;98481.91;112139;1193;76112;-22
2021/11/08 01:00:07;;;;;;;10.50;5.10;;;;;;;6.05;75.43;98476.90;112494;1192;73981;-21
2021/11/08 01:02:36;;;;;;;7.90;5.10;;;;;;;6.54;73.30;98474.85;112274;1193;60758;-22
2021/11/08 01:05:06;;;;;;;11.50;5.70;;;;;;;6.54;72.98;98475.16;112274;1193;60899;-22
2021/11/08 01:07:34;;;;;;;8.10;5.20;;;;;;;6.34;73.32;98476.13;112127;1195;74203;-22
2021/11/08 01:10:05;;;;;;;9.00;5.70;;;;;;;6.07;74.04;98476.13;112536;1193;74591;-22
2021/11/08 01:12:33;;;;;;;9.80;5.50;;;;;;;5.82;74.80;98478.56;112140;1193;73048;-22
2021/11/08 01:15:03;;;;;;;6.50;4.40;;;;;;;5.61;75.65;98482.62;112534;1193;62377;-23
2021/11/08 01:17:33;;;;;;;7.60;5.20;;;;;;;6.04;75.01;98481.88;112455;1193;60833;-23
2021/11/08 01:20:17;;;;;;;11.20;5.20;;;;;;;6.51;72.88;98476.77;112215;1192;75065;-23
2021/11/08 01:22:46;;;;;;;10.90;5.60;;;;;;;6.45;72.66;98474.42;112491;1193;75716;-22
2021/11/08 01:25:15;;;;;;;8.90;5.20;;;;;;;6.21;73.64;98473.23;112466;1193;73007;-22
2021/11/08 01:27:48;;;;;;;8.20;5.60;;;;;;;5.97;74.30;98484.41;112476;1193;60929;-23
2021/11/08 01:30:19;;;;;;;8.10;5.40;;;;;;;5.72;75.00;98489.05;112501;1192;60809;-23
2021/11/08 01:32:58;;;;;;;6.60;4.50;;;;;;;5.51;75.90;98489.50;112434;1194;75245;-23
2021/11/08 01:36:17;;;;;;;6.80;4.80;;;;;;;5.90;75.30;98489.05;112139;1193;73982;-22
2021/11/08 01:40:45;;;;;;;8.00;5.00;;;;;;;6.24;73.25;98488.17;112512;1193;60809;-23
2021/11/08 01:43:13;;;;;;;8.60;6.00;;;;;;;6.06;73.91;98493.09;112197;1192;60835;-23
2021/11/08 01:45:42;;;;;;;10.10;5.90;;;;;;;5.86;74.65;98492.23;112543;1192;74957;-23
2021/11/08 01:48:11;;;;;;;9.40;6.20;;;;;;;5.61;75.69;98495.04;112485;1192;75500;-22
2021/11/08 01:50:39;;;;;;;7.80;4.90;;;;;;;5.51;76.10;98488.77;112180;1193;74203;-23
2021/11/08 01:53:08;;;;;;;11.20;5.70;;;;;;;5.97;75.03;98487.01;112413;1192;60851;-23
2021/11/08 01:55:37;;;;;;;6.60;4.20;;;;;;;6.38;73.55;98486.14;112409;1191;60898;-24
2021/11/08 01:58:06;;;;;;;8.20;5.80;;;;;;;6.36;73.22;98484.36;112506;1192;75016;-24
2021/11/08 02:00:37;;;;;;;7.40;4.70;;;;;;;6.17;73.97;98487.35;112441;1193;75655;-26
2021/11/08 02:03:05;;;;;;;9.50;5.40;;;;;;;5.91;74.48;98483.95;112426;1192;72999;-23
2021/11/08 02:05:34;;;;;;;13.90;6.30;;;;;;;5.74;75.24;98484.95;112443;1192;60828;-23
2021/11/08 02:08:02;;;;;;;6.60;4.50;;;;;;;5.63;75.73;98482.82;112521;1193;60929;-23
2021/11/08 02:10:32;;;;;;;5.00;2.90;;;;;;;6.11;74.50;98478.83;112557;1193;75138;-23
2021/11/08 02:13:00;;;;;;;10.20;5.20;;;;;;;6.47;72.94;98477.55;112279;1192;74027;-22
2021/11/08 02:15:29;;;;;;;8.40;5.40;;;;;;;6.45;72.55;98474.28;112473;1193;72755;-22
2021/11/08 02:17:58;;;;;;;10.20;5.60;;;;;;;6.23;73.18;98475.48;112304;1192;60892;-22
2021/11/08 02:20:28;;;;;;;8.90;5.10;;;;;;;6.05;73.72;98471.27;112545;1193;60822;-23
2021/11/08 02:23:00;;;;;;;8.70;5.20;;;;;;;5.86;74.24;98474.18;112254;1192;74929;-23
2021/11/08 02:25:30;;;;;;;9.30;5.20;;;;;;;5.86;74.71;98480.54;112162;1193;77208;-22
2021/11/08 02:27:59;;;;;;;9.00;4.70;;;;;;;6.38;73.04;98485.30;112254;1192;71903;-24
2021/11/08 02:30:29;;;;;;;11.70;5.20;;;;;;;6.53;72.15;98481.97;112552;1191;61605;-24
2021/11/08 02:32:57;;;;;;;8.80;4.90;;;;;;;6.41;72.46;98478.33;112458;1192;60834;-22
2021/11/08 02:35:26;;;;;;;9.10;5.50;;;;;;;6.18;72.91;98482.41;112271;1193;75581;-22
2021/11/08 02:37:54;;;;;;;8.10;4.90;;;;;;;5.91;74.23;98490.19;112501;1193;75507;-22
2021/11/08 02:40:25;;;;;;;6.80;4.70;;;;;;;5.69;74.64;98483.07;112510;1192;73770;-24
2021/11/08 02:42:58;;;;;;;11.70;5.20;;;;;;;5.72;74.96;98480.27;112256;1192;62692;-22
2021/11/08 02:45:28;;;;;;;7.60;4.70;;;;;;;6.31;73.32;98480.99;112457;1192;60917;-23
2021/11/08 02:47:56;;;;;;;7.70;4.90;;;;;;;6.52;72.14;98482.34;112190;1193;73925;-21
2021/11/08 02:50:28;;;;;;;13.10;6.20;;;;;;;6.43;72.21;98476.66;112525;1192;75711;-22
2021/11/08 02:53:02;;;;;;;8.40;5.30;;;;;;;6.13;73.33;98475.53;112386;1193;73931;-22
2021/11/08 02:55:31;;;;;;;6.90;4.60;;;;;;;5.85;74.33;98481.30;112226;1193;60824;-22
2021/11/08 02:58:00;;;;;;;8.80;5.50;;;;;;;5.68;75.06;98478.55;112532;1183;61683;-22
2021/11/08 03:00:29;;;;;;;7.40;4.40;;;;;;;5.51;75.84;98481.55;112482;1193;75221;-22
2021/11/08 03:02:57;;;;;;;8.30;4.20;;;;;;;6.01;74.52;98474.28;112542;1192;74678;-22
2021/11/08 03:05:33;;;;;;;8.60;5.10;;;;;;;6.40;72.67;98477.20;112488;1193;73878;-23
2021/11/08 03:08:03;;;;;;;10.10;5.80;;;;;;;6.39;72.50;98477.95;112493;1192;60941;-22
2021/11/08 03:10:33;;;;;;;11.00;5.40;;;;;;;6.18;73.18;98474.84;112092;1193;61448;-22
2021/11/08 03:13:10;;;;;;;11.40;6.00;;;;;;;5.95;73.98;98479.92;112174;1192;72684;-22
2021/11/08 03:16:03;;;;;;;9.40;5.80;;;;;;;5.74;74.73;98470.55;112496;1193;74654;-23
2021/11/08 03:18:36;;;;;;;7.80;5.00;;;;;;;5.56;75.73;98470.89;112395;1193;72866;-23
2021/11/08 03:21:14;;;;;;;8.50;4.60;;;;;;;6.11;73.82;98472.40;112510;1193;60796;-23
2021/11/08 03:23:44;;;;;;;7.90;5.50;;;;;;;6.43;72.62;98478.77;112491;1192;60933;-23
2021/11/08 03:27:03;;;;;;;7.10;4.30;;;;;;;6.37;72.58;98482.23;112460;1192;75385;-23
2021/11/08 03:29:02;;;;;;;8.10;4.70;;;;;;;6.14;73.16;98483.05;112419;1192;75588;-23
2021/11/08 03:31:31;;;;;;;7.50;4.20;;;;;;;5.93;74.09;98489.19;112254;1192;74426;-23
2021/11/08 03:33:59;;;;;;;7.60;5.10;;;;;;;5.74;75.00;98496.85;112244;1193;60895;-23
2021/11/08 03:36:29;;;;;;;9.40;4.50;;;;;;;5.61;75.38;98496.23;112242;1192;60838;-23
2021/11/08 03:38:58;;;;;;;9.80;5.20;;;;;;;6.07;74.29;98497.52;112492;1192;74226;-23
2021/11/08 03:41:28;;;;;;;6.50;4.30;;;;;;;6.50;72.57;98498.91;112587;1190;75659;-23
2021/11/08 03:44:01;;;;;;;8.60;4.60;;;;;;;6.48;72.43;98499.19;112524;1190;73044;-22
2021/11/08 03:46:30;;;;;;;7.50;4.70;;;;;;;6.24;73.11;98501.27;112496;1190;60812;-22
2021/11/08 03:48:59;;;;;;;6.80;4.40;;;;;;;6.02;74.07;98499.55;112524;1189;61677;-23
2021/11/08 03:51:27;;;;;;;6.70;4.60;;;;;;;5.80;74.86;98498.17;112533;1190;74957;-23
2021/11/08 03:53:56;;;;;;;8.00;3.00;;;;;;;5.70;75.50;98503.84;112472;1190;75628;-22
2021/11/08 03:56:24;;;;;;;5.00;3.50;;;;;;;6.07;74.45;98503.66;112379;1193;74046;-22
2021/11/08 03:58:54;;;;;;;8.00;3.80;;;;;;;6.47;72.77;98510.36;112497;1190;60855;-22
2021/11/08 04:01:22;;;;;;;5.70;3.60;;;;;;;6.43;72.64;98506.48;112472;1190;61019;-22
2021/11/08 04:03:51;;;;;;;7.20;4.00;;;;;;;6.31;73.14;98512.51;112384;1191;75405;-22
2021/11/08 04:06:19;;;;;;;6.80;4.40;;;;;;;6.09;73.83;98510.79;112426;1191;74676;-22
2021/11/08 04:08:47;;;;;;;7.40;3.90;;;;;;;5.95;74.37;98513.65;112547;1190;74166;-22
2021/11/08 04:11:16;;;;;;;11.30;3.80;;;;;;;5.82;75.14;98518.20;112503;1190;63244;-23
2021/11/08 04:13:44;;;;;;;7.50;4.30;;;;;;;6.28;73.63;98514.11;112428;1193;61867;-22
2021/11/08 04:16:14;;;;;;;6.00;3.60;;;;;;;6.63;72.10;98515.06;112551;1190;75236;-22
2021/11/08 04:18:49;;;;;;;7.40;4.00;;;;;;;6.50;72.50;98515.96;112558;1190;75328;-22
2021/11/08 04:21:18;;;;;;;7.00;4.90;;;;;;;6.35;72.79;98523.43;112523;1190;74083;-22
2021/11/08 04:23:46;;;;;;;6.10;4.30;;;;;;;6.12;73.92;98536.77;112492;1190;61924;-22
2021/11/08 04:26:19;;;;;;;6.10;4.30;;;;;;;5.98;74.41;98537.95;112518;1190;60783;-22
2021/11/08 04:28:55;;;;;;;4.80;3.50;;;;;;;5.88;75.03;98539.65;112532;1190;73442;-23
2021/11/08 04:31:24;;;;;;;5.20;3.60;;;;;;;6.39;73.15;98537.81;112536;1190;74931;-23
2021/11/08 04:33:56;;;;;;;6.90;4.20;;;;;;;6.69;71.80;98545.27;112523;1190;73020;-22
2021/11/08 04:39:12;;;;;;;7.30;4.40;;;;;;;6.45;72.57;98539.98;112481;1189;61804;-24
2021/11/08 05:29:53;;;;;;;5.10;3.80;;;;;;;6.65;72.38;98570.27;112440;1192;74093;-22
2021/11/08 05:31:31;;;;;;;5.70;3.40;;;;;;;6.35;73.75;98573.62;112536;1190;60822;-22
2021/11/08 05:34:00;;;;;;;7.00;4.80;;;;;;;6.20;74.30;98571.91;112548;1190;60818;-22
2021/11/08 05:36:29;;;;;;;4.80;3.10;;;;;;;6.03;75.04;98575.30;112508;1190;73542;-22
2021/11/08 05:38:58;;;;;;;6.60;3.90;;;;;;;6.41;74.06;98579.39;112520;1190;74611;-22
2021/11/08 05:41:27;;;;;;;8.50;4.70;;;;;;;6.69;72.92;98579.77;112517;1190;74077;-23
2021/11/08 05:44:02;;;;;;;7.10;4.20;;;;;;;6.68;72.89;98581.73;112519;1190;60796;-22
2021/11/08 05:46:31;;;;;;;6.10;3.90;;;;;;;6.56;73.45;98591.44;112513;1190;60780;-22
2021/11/08 05:48:59;;;;;;;6.70;4.10;;;;;;;6.39;74.02;98589.52;112415;1190;73451;-23
2021/11/08 05:51:28;;;;;;;7.70;4.40;;;;;;;6.20;74.88;98592.11;112542;1190;75498;-21
2021/11/08 05:53:57;;;;;;;6.60;4.30;;;;;;;6.22;75.23;98599.13;112481;1191;73152;-22
2021/11/08 05:56:36;;;;;;;6.50;4.80;;;;;;;6.78;73.31;98602.42;112530;1190;61755;-22
2021/11/08 06:49:43;;;;;;;5.80;3.70;;;;;;;7.00;72.03;98664.50;112069;1193;73054;-23
2021/11/08 06:52:13;;;;;;;5.90;3.40;;;;;;;6.85;72.47;98666.67;112358;1191;60895;-23
2021/11/08 06:54:47;;;;;;;8.60;4.70;;;;;;;6.70;72.98;98671.11;112583;1189;60808;-23
2021/11/08 06:57:18;;;;;;;6.10;4.30;;;;;;;6.51;73.65;98673.34;112467;1188;75225;-23
2021/11/08 06:59:48;;;;;;;4.80;2.90;;;;;;;6.34;74.18;98684.54;112462;1190;74992;-21
2021/11/08 07:02:19;;;;;;;5.20;3.40;;;;;;;6.54;73.65;98684.36;112389;1193;74031;-23
2021/11/08 07:04:47;;;;;;;5.30;3.60;;;;;;;6.94;72.11;98678.81;112234;1193;60857;-23
2021/11/08 07:07:16;;;;;;;8.40;4.30;;;;;;;6.94;71.66;98680.52;112473;1190;61690;-23
2021/11/08 07:09:44;;;;;;;5.80;3.90;;;;;;;6.80;72.18;98676.17;112555;1190;73526;-23
2021/11/08 07:12:13;;;;;;;5.60;3.70;;;;;;;6.63;72.80;98682.53;112520;1190;74658;-23
2021/11/08 07:14:41;;;;;;;6.50;3.50;;;;;;;6.47;73.55;98689.33;112322;1190;72987;-22
2021/11/08 07:17:10;;;;;;;5.80;4.00;;;;;;;6.37;73.80;98693.46;112527;1190;61569;-22
2021/11/08 07:19:38;;;;;;;6.30;3.50;;;;;;;6.49;73.63;98695.88;112496;1190;60809;-23
2021/11/08 07:22:07;;;;;;;4.50;3.70;;;;;;;6.92;71.84;98698.44;112519;1191;75033;-22
2021/11/08 07:24:36;;;;;;;6.40;4.30;;;;;;;7.10;71.44;98697.34;112516;1190;74433;-24
2021/11/08 07:27:04;;;;;;;8.10;4.50;;;;;;;6.90;72.02;98704.41;112494;1190;73048;-22
2021/11/08 07:29:37;;;;;;;7.70;4.20;;;;;;;6.78;72.54;98707.20;112532;1190;61505;-24
2021/11/08 07:32:06;;;;;;;7.00;4.40;;;;;;;6.79;72.63;98701.39;112535;1190;60822;-23
2021/11/08 07:34:35;;;;;;;10.30;4.40;;;;;;;7.02;71.73;98705.09;112144;1177;75054;-23
2021/11/08 07:37:04;;;;;;;6.50;4.10;;;;;;;7.18;71.41;98702.60;112539;1190;75885;-22
2021/11/08 07:39:33;;;;;;;6.90;4.70;;;;;;;7.30;70.98;98708.84;112146;1193;74092;-23
2021/11/08 07:42:02;;;;;;;6.20;3.70;;;;;;;7.53;70.44;98710.74;112334;1192;60892;-24
2021/11/08 07:44:30;;;;;;;10.60;4.30;;;;;;;7.53;69.50;98697.61;112531;1191;60816;-24
2021/11/08 07:46:58;;;;;;;8.90;5.20;;;;;;;7.52;69.79;98717.33;112523;1190;75435;-24
2021/11/08 07:49:26;;;;;;;8.20;3.40;;;;;;;7.60;69.77;98712.97;112315;1190;75641;-24
2021/11/08 07:51:55;;;;;;;5.10;3.40;;;;;;;7.68;69.41;98713.12;112522;1190;73106;-24
2021/11/08 07:54:24;;;;;;;10.50;4.80;;;;;;;7.85;68.75;98716.02;112513;1190;60793;-24
2021/11/08 07:56:53;;;;;;;9.90;4.10;;;;;;;7.70;68.44;98698.08;112330;1190;61501;-24
2021/11/08 07:59:21;;;;;;;13.10;4.00;;;;;;;7.61;69.07;98700.17;112348;1190;75524;-22
2021/11/08 08:01:50;;;;;;;9.40;3.60;;;;;;;7.68;68.96;98708.13;112317;1191;74825;-23
2021/11/08 08:04:18;;;;;;;4.70;2.40;;;;;;;7.73;68.64;98701.52;112499;1190;73077;-24
2021/11/08 08:06:49;;;;;;;9.20;5.20;;;;;;;7.69;68.93;98709.27;112318;1190;61378;-24
2021/11/08 08:09:18;;;;;;;8.50;3.90;;;;;;;7.83;69.10;98704.52;112311;1190;60800;-24
2021/11/08 08:11:46;;;;;;;12.00;5.10;;;;;;;7.99;67.81;98690.36;112244;1193;75217;-24
2021/11/08 08:14:16;;;;;;;11.00;4.70;;;;;;;7.88;67.58;98696.41;112231;1192;75646;-23
2021/11/08 08:16:45;;;;;;;6.20;3.70;;;;;;;7.99;67.71;98703.72;112407;1177;74226;-22
2021/11/08 08:19:14;;;;;;;7.20;2.80;;;;;;;7.96;67.21;98699.40;112271;1190;61635;-23
2021/11/08 08:21:43;;;;;;;4.20;2.80;;;;;;;8.22;66.27;98702.69;112494;1190;60808;-22
2021/11/08 08:24:12;;;;;;;5.90;3.20;;;;;;;8.46;65.81;98723.17;112288;1192;74059;-23
2021/11/08 08:26:43;;;;;;;7.70;3.40;;;;;;;8.52;66.00;98721.80;112512;1190;75786;-23
2021/11/08 08:29:13;;;;;;;4.50;2.10;;;;;;;8.80;65.22;98718.41;112536;1190;74095;-23
2021/11/08 08:31:44;;;;;;;3.40;2.20;;;;;;;9.08;62.68;98710.67;112292;1192;60841;-24
2021/11/08 08:34:13;;;;;;;7.80;2.80;;;;;;;9.10;62.41;98716.08;112230;1192;60839;-22
2021/11/08 08:36:42;;;;;;;6.50;3.10;;;;;;;8.73;63.42;98717.25;112213;1192;75158;-22
2021/11/08 08:39:11;;;;;;;4.80;2.60;;;;;;;8.71;64.09;98731.95;112526;1190;74726;-22
2021/11/08 08:41:41;;;;;;;4.30;2.10;;;;;;;8.82;64.23;98725.94;112499;1190;75623;-22
2021/11/08 08:44:13;;;;;;;5.00;2.50;;;;;;;8.81;62.11;98710.57;112519;1190;61930;-22
2021/11/08 08:46:42;;;;;;;6.10;2.80;;;;;;;8.80;61.82;98717.77;112575;1190;60834;-22
2021/11/08 08:49:12;;;;;;;7.10;3.50;;;;;;;8.96;62.20;98725.27;112246;1190;75883;-23
2021/11/08 08:51:42;;;;;;;6.20;3.30;;;;;;;8.93;62.09;98726.40;112248;1192;75583;-24
2021/11/08 08:54:10;;;;;;;4.60;2.50;;;;;;;9.03;62.08;98715.41;112289;1191;73037;-22
2021/11/08 08:56:39;;;;;;;4.50;2.50;;;;;;;9.07;62.07;98727.00;112526;1190;61755;-23
2021/11/08 08:59:07;;;;;;;5.90;2.90;;;;;;;8.89;63.17;98723.05;112321;1190;60785;-22
2021/11/08 09:01:36;;;;;;;6.90;3.30;;;;;;;8.83;63.76;98735.16;112533;1190;75155;-23
2021/11/08 09:04:04;;;;;;;5.20;3.40;;;;;;;8.80;63.14;98731.61;112287;1192;75717;-22
2021/11/08 09:06:33;;;;;;;6.30;3.40;;;;;;;8.78;63.25;98745.09;112549;1190;74161;-22
2021/11/08 09:09:02;;;;;;;5.20;2.70;;;;;;;9.00;63.21;98743.66;112487;1190;61714;-22
2021/11/08 09:11:31;;;;;;;9.20;4.00;;;;;;;9.24;61.66;98741.05;112287;1190;62042;-22
2021/11/08 09:14:01;;;;;;;6.60;3.20;;;;;;;9.33;62.05;98744.84;112471;1190;74270;-22
2021/11/08 09:16:45;;;;;;;6.70;2.60;;;;;;;8.85;61.61;98741.92;112290;1191;75644;-21
2021/11/08 09:19:13;;;;;;;6.60;3.30;;;;;;;8.63;62.93;98750.38;112531;1190;73953;-22
2021/11/08 09:21:42;;;;;;;6.20;2.50;;;;;;;8.28;64.13;98761.39;112266;1191;60850;-22
2021/11/08 09:24:11;;;;;;;5.80;3.00;;;;;;;8.40;65.01;98766.99;112487;1190;60795;-22
2021/11/08 09:26:39;;;;;;;5.00;2.70;;;;;;;8.30;64.99;98757.89;112261;1191;73647;-23
2021/11/08 09:29:08;;;;;;;9.20;3.40;;;;;;;7.90;65.19;98754.45;112520;1190;75128;-23
2021/11/08 09:31:37;;;;;;;6.10;3.10;;;;;;;7.77;66.02;98762.56;112487;1190;74158;-24
2021/11/08 09:34:16;;;;;;;5.80;2.50;;;;;;;8.09;65.74;98772.77;112331;1190;60930;-20
2021/11/08 09:36:45;;;;;;;5.80;2.90;;;;;;;8.68;64.14;98773.20;112294;1192;60836;-22
2021/11/08 09:39:24;;;;;;;4.80;2.70;;;;;;;8.83;61.89;98764.10;112590;1190;74261;-22
2021/11/08 09:41:57;;;;;;;5.70;3.00;;;;;;;8.68;61.76;98761.80;112335;1192;75616;-22
2021/11/08 09:44:25;;;;;;;6.70;2.90;;;;;;;8.62;61.98;98774.85;112201;1190;72759;-22
2021/11/08 09:47:00;;;;;;;2.50;1.50;;;;;;;8.49;62.11;98775.47;112442;1190;60840;-22
2021/11/08 09:49:30;;;;;;;4.40;2.60;;;;;;;8.41;63.24;98781.64;112474;1190;60835;-23
2021/11/08 09:51:59;;;;;;;7.00;3.00;;;;;;;8.27;63.60;98786.96;112307;1192;73710;-23
2021/11/08 09:54:28;;;;;;;7.30;3.20;;;;;;;8.03;64.58;98792.44;112539;1190;76060;-24
2021/11/08 09:56:58;;;;;;;5.90;3.00;;;;;;;7.90;64.83;98794.94;112531;1192;73990;-24
2021/11/08 09:59:29;;;;;;;7.40;2.90;;;;;;;7.94;64.72;98803.66;112226;1192;61470;-24
2021/11/08 10:01:57;;;;;;;4.60;2.50;;;;;;;7.95;64.54;98799.94;112135;1193;61694;-24
2021/11/08 10:04:27;;;;;;;4.30;2.20;;;;;;;7.74;64.41;98781.62;112293;1192;75434;-24
2021/11/08 10:06:56;;;;;;;6.70;2.80;;;;;;;7.78;64.55;98791.83;112283;1192;72952;-24
2021/11/08 10:09:43;;;;;;;5.60;2.90;;;;;;;7.73;64.80;98780.64;112493;1190;71588;-23
2021/11/08 10:12:16;;;;;;;4.50;2.30;;;;;;;7.69;63.28;98781.60;112535;1190;61357;-23
2021/11/08 10:14:44;;;;;;;5.90;2.30;;;;;;;7.54;62.49;98772.17;112567;1190;60947;-22
2021/11/08 10:17:12;;;;;;;5.90;2.00;;;;;;;7.47;61.88;98771.84;112537;1190;74361;-22
2021/11/08 10:19:41;;;;;;;8.00;1.90;;;;;;;7.42;62.06;98780.12;112561;1190;75434;-22
2021/11/08 10:22:10;;;;;;;3.60;1.70;;;;;;;7.37;61.73;98761.14;112234;1192;71938;-22
2021/11/08 10:24:39;;;;;;;1.50;0.90;;;;;;;7.84;60.47;98761.20;112262;1191;60915;-23
2021/11/08 10:27:12;;;;;;;3.30;1.50;;;;;;;8.15;58.83;98757.32;112495;1190;61746;-23
2021/11/08 10:29:42;;;;;;;3.00;1.40;;;;;;;8.56;57.70;98747.77;112299;1190;75024;-22
2021/11/08 10:32:12;;;;;;;1.20;0.90;;;;;;;9.03;55.96;98753.66;112234;1193;75692;-23
2021/11/08 10:34:50;;;;;;;2.60;1.30;;;;;;;9.25;54.92;98743.48;112191;1192;73255;-24
2021/11/08 10:37:36;;;;;;;3.80;1.30;;;;;;;9.30;54.49;98734.02;112209;1190;61733;-22
2021/11/08 10:40:14;;;;;;;7.40;1.50;;;;;;;9.08;55.81;98737.15;112222;1190;61985;-22
2021/11/08 10:43:03;;;;;;;2.30;1.20;;;;;;;9.61;53.71;98727.84;112294;1190;72509;-22
2021/11/08 10:45:31;;;;;;;2.40;1.20;;;;;;;9.39;55.29;98741.80;112501;1190;75932;-24
2021/11/08 10:48:03;;;;;;;2.30;1.30;;;;;;;9.46;55.12;98729.79;112429;1190;73292;-24
2021/11/08 10:50:39;;;;;;;3.70;1.40;;;;;;;9.25;56.15;98721.09;112203;1192;60881;-24
2021/11/08 10:53:07;;;;;;;4.20;1.60;;;;;;;9.20;56.75;98720.83;112229;1189;60890;-25
2021/11/08 10:55:36;;;;;;;4.90;1.80;;;;;;;9.38;57.41;98739.61;112526;1190;74797;-23
2021/11/08 10:58:09;;;;;;;5.40;1.90;;;;;;;9.00;57.80;98734.86;112258;1192;75625;-25
2021/11/08 11:00:55;;;;;;;3.10;1.60;;;;;;;9.42;57.87;98744.83;112227;1192;73974;-23
2021/11/08 11:03:29;;;;;;;3.90;2.10;;;;;;;9.48;56.57;98749.91;112262;1190;60825;-23
2021/11/08 11:06:05;;;;;;;4.80;2.40;;;;;;;9.18;56.78;98733.41;112232;1190;60820;-22
2021/11/08 11:08:33;;;;;;;4.10;1.80;;;;;;;9.54;56.95;98729.81;112173;1192;75338;-22
2021/11/08 11:11:04;;;;;;;4.90;1.90;;;;;;;9.33;57.22;98741.09;112519;1191;75795;-22
2021/11/08 11:13:38;;;;;;;5.00;1.90;;;;;;;8.85;58.23;98728.64;112214;1192;74352;-22
2021/11/08 11:16:07;;;;;;;4.40;1.70;;;;;;;8.62;58.95;98740.61;112284;1191;61111;-22
2021/11/08 11:18:37;;;;;;;6.50;2.40;;;;;;;8.48;59.02;98728.71;112503;1192;60787;-22
2021/11/08 11:21:18;;;;;;;5.50;2.40;;;;;;;8.24;60.74;98737.42;112304;1192;75233;-22
2021/11/08 11:23:49;;;;;;;6.60;3.10;;;;;;;8.09;61.72;98744.41;112247;1192;74482;-23
2021/11/08 11:26:20;;;;;;;6.70;2.50;;;;;;;7.99;62.11;98749.83;112233;1193;73403;-22
2021/11/08 11:28:50;;;;;;;5.60;2.40;;;;;;;8.10;61.74;98757.17;112238;1191;60864;-22
2021/11/08 11:31:20;;;;;;;7.20;2.80;;;;;;;8.14;60.95;98752.21;112484;1190;60797;-24
2021/11/08 11:33:53;;;;;;;5.30;2.40;;;;;;;8.54;60.28;98751.74;112232;1192;75899;-24
2021/11/08 11:36:22;;;;;;;5.50;2.80;;;;;;;8.97;60.09;98751.18;112251;1192;74514;-23
2021/11/08 11:38:52;;;;;;;8.80;2.80;;;;;;;9.33;58.59;98750.96;112236;1192;73124;-22
2021/11/08 11:41:26;;;;;;;4.80;2.60;;;;;;;9.57;58.54;98758.36;112260;1191;60929;-22
2021/11/08 11:44:00;;;;;;;7.70;2.60;;;;;;;9.19;58.45;98759.66;112213;1192;60900;-22
2021/11/08 11:46:30;;;;;;;6.80;2.60;;;;;;;9.12;58.46;98749.32;112468;1193;75148;-22
2021/11/08 11:49:02;;;;;;;6.60;2.60;;;;;;;9.06;59.23;98763.98;112228;1192;75653;-22
2021/11/08 11:51:34;;;;;;;5.20;2.70;;;;;;;8.97;58.51;98760.02;112257;1192;73891;-22
2021/11/08 11:54:04;;;;;;;4.70;2.40;;;;;;;8.66;59.31;98754.48;112152;1194;60919;-22
2021/11/08 11:56:34;;;;;;;5.10;1.70;;;;;;;8.75;59.38;98762.61;112246;1192;61774;-23
2021/11/08 11:59:02;;;;;;;4.30;2.00;;;;;;;8.84;59.12;98760.67;112243;1192;75117;-22
2021/11/08 12:01:31;;;;;;;5.60;2.20;;;;;;;8.66;58.80;98753.95;112241;1192;75781;-22
2021/11/08 12:04:22;;;;;;;7.50;2.50;;;;;;;8.57;58.17;98750.70;112319;1192;73210;-23
2021/11/08 12:06:53;;;;;;;5.60;1.90;;;;;;;8.50;58.57;98748.27;112562;1190;61734;-22
2021/11/08 12:09:40;;;;;;;4.50;2.30;;;;;;;8.53;58.65;98758.45;112133;1192;60934;-22
2021/11/08 12:12:09;;;;;;;5.70;2.40;;;;;;;8.55;58.35;98752.73;112248;1192;74362;-22
2021/11/08 12:14:38;;;;;;;2.30;1.30;;;;;;;8.52;58.95;98759.37;112475;1190;75401;-22
2021/11/08 12:17:15;;;;;;;4.50;2.40;;;;;;;8.54;58.78;98760.45;112457;1190;73135;-22
2021/11/08 12:19:44;;;;;;;2.60;1.60;;;;;;;8.52;59.24;98772.00;112268;1190;61751;-23
2021/11/08 12:22:31;;;;;;;5.50;2.90;;;;;;;8.47;59.93;98773.41;112289;1193;60813;-24
2021/11/08 12:24:59;;;;;;;5.00;2.50;;;;;;;8.39;60.00;98757.20;112116;1195;74246;-22
2021/11/08 12:27:35;;;;;;;7.80;2.70;;;;;;;8.12;60.60;98758.06;112494;1191;75652;-22
2021/11/08 12:30:15;;;;;;;4.70;2.60;;;;;;;7.93;61.15;98759.66;112323;1190;72807;-23
2021/11/08 12:33:35;;;;;;;6.90;2.70;;;;;;;7.90;61.11;98766.95;112215;1192;60817;-24
2021/11/08 12:36:10;;;;;;;4.90;2.10;;;;;;;7.89;61.07;98766.48;112251;1192;61740;-19
2021/11/08 12:38:44;;;;;;;12.60;3.30;;;;;;;7.84;61.39;98761.38;112481;1191;74349;-21
2021/11/08 12:41:20;;;;;;;6.80;2.50;;;;;;;7.78;62.06;98770.22;112140;1191;74736;-22
2021/11/08 12:43:53;;;;;;;4.70;2.40;;;;;;;7.65;62.36;98776.41;112208;1190;74232;-22
2021/11/08 12:46:22;;;;;;;7.60;3.00;;;;;;;7.57;62.89;98784.17;112220;1192;61452;-22
2021/11/08 12:49:08;;;;;;;7.70;3.00;;;;;;;7.54;63.20;98785.60;112278;1193;60775;-24
2021/11/08 12:51:37;;;;;;;6.00;2.50;;;;;;;7.68;63.09;98787.73;112284;1194;75229;-24
2021/11/08 12:54:10;;;;;;;7.90;3.10;;;;;;;7.79;63.39;98793.65;112404;1192;74030;-26
2021/11/08 12:56:43;;;;;;;5.60;2.50;;;;;;;7.99;62.06;98790.46;112142;1193;73351;-24
2021/11/08 12:59:23;;;;;;;;;;;;;;;8.26;61.36;98797.84;112533;1190;60977;-24
2021/11/08 13:01:59;;;;;;;4.30;1.50;;;;;;;8.40;60.61;98798.45;112243;1187;61160;-24
2021/11/08 13:04:40;;;;;;;6.30;3.00;;;;;;;8.37;60.00;98800.77;112425;1190;74692;-25
2021/11/08 13:07:11;;;;;;;9.00;2.50;;;;;;;8.19;60.96;98795.73;112527;1190;75402;-28
2021/11/08 13:09:44;;;;;;;6.10;2.50;;;;;;;8.06;61.23;98796.33;112199;1193;71846;-26
2021/11/08 13:12:18;;;;;;;3.30;2.00;;;;;;;7.91;62.34;98809.89;112225;1190;60829;-24
2021/11/08 13:14:49;;;;;;;9.20;2.80;;;;;;;7.72;63.26;98813.06;112276;1192;60813;-26
2021/11/08 13:17:21;;;;;;;11.20;3.40;;;;;;;7.69;64.23;98834.02;112257;1192;75687;-26
2021/11/08 13:20:08;;;;;;;5.70;2.90;;;;;;;7.61;63.93;98825.22;112118;1193;74477;-26
2021/11/08 13:22:49;;;;;;;5.60;2.30;;;;;;;8.08;62.71;98822.98;112249;1193;74021;-22
2021/11/08 13:25:20;;;;;;;5.80;2.20;;;;;;;8.46;61.31;98831.06;112230;1190;60836;-24
2021/11/08 13:28:00;;;;;;;3.60;1.70;;;;;;;8.46;60.99;98827.45;112244;1177;60920;-24
2021/11/08 13:30:39;;;;;;;4.40;1.90;;;;;;;8.32;60.63;98833.65;112268;1190;74560;-23
2021/11/08 13:33:10;;;;;;;1.90;1.30;;;;;;;8.26;60.08;98828.23;112293;1190;75784;-23
2021/11/08 13:35:39;;;;;;;6.40;2.00;;;;;;;8.10;60.49;98829.90;112109;1193;71307;-23
2021/11/08 13:38:19;;;;;;;6.20;2.10;;;;;;;8.01;60.34;98822.33;112208;1177;61591;-23